Time;durP1;ratioP1;P1;durP2;ratioP2;P2;SDS_P1;SDS_P2;PMS_P1;PMS_P2;Temp;Humidity;BMP_temperature;BMP_pressure;BME280_temperature;BME280_humidity;BME280_pressure;Samples;Min_cycle;Max_cycle;Signal;HPM_P1;HPM_P2
2023/08/17 00:01:05;;;;;;;5.47;2.42;;;;;;;20.03;100.00;101883.28;5285858;28;20035;-71
2023/08/17 00:03:35;;;;;;;5.22;3.03;;;;;;;19.98;100.00;101882.19;5272091;28;20218;-70
2023/08/17 00:06:05;;;;;;;7.25;3.10;;;;;;;19.92;100.00;101879.25;5286093;28;20396;-70
2023/08/17 00:08:36;;;;;;;4.40;3.35;;;;;;;19.88;100.00;101875.25;5285354;28;20016;-71
2023/08/17 00:11:07;;;;;;;4.90;2.92;;;;;;;19.83;100.00;101877.75;5280811;28;20081;-71
2023/08/17 00:13:37;;;;;;;4.45;3.00;;;;;;;19.81;100.00;101882.53;5290406;28;20549;-70
2023/08/17 00:16:08;;;;;;;4.07;2.85;;;;;;;19.78;100.00;101877.53;5287030;28;20039;-70
2023/08/17 00:18:38;;;;;;;6.30;3.17;;;;;;;19.75;100.00;101874.34;5279882;28;20488;-71
2023/08/17 00:21:09;;;;;;;21.05;3.78;;;;;;;19.71;100.00;101871.19;5290272;28;20031;-70
2023/08/17 00:23:39;;;;;;;5.38;3.22;;;;;;;19.68;100.00;101879.78;5291323;28;20016;-71
2023/08/17 00:26:10;;;;;;;6.63;3.13;;;;;;;19.70;100.00;101883.13;5271369;28;20031;-71
2023/08/17 00:28:41;;;;;;;8.70;3.50;;;;;;;19.73;100.00;101881.88;5272109;28;20478;-71
2023/08/17 00:31:11;;;;;;;10.70;3.60;;;;;;;19.75;100.00;101886.09;5271775;28;20019;-71
2023/08/17 00:33:42;;;;;;;7.88;3.80;;;;;;;19.73;100.00;101881.88;5271978;28;20468;-70
2023/08/17 00:36:13;;;;;;;5.57;3.30;;;;;;;19.69;100.00;101880.63;5271322;28;20476;-70
2023/08/17 00:38:43;;;;;;;6.00;3.03;;;;;;;19.68;100.00;101879.78;5269502;28;20020;-70
2023/08/17 00:41:14;;;;;;;5.22;3.33;;;;;;;19.60;100.00;101891.66;5270266;28;20020;-70
2023/08/17 00:43:44;;;;;;;5.30;3.50;;;;;;;19.54;100.00;101892.44;5276028;28;20063;-71
2023/08/17 00:46:15;;;;;;;6.18;3.10;;;;;;;19.31;100.00;101868.19;5281465;28;20055;-70
2023/08/17 00:48:46;;;;;;;5.47;3.70;;;;;;;19.41;100.00;101895.06;5270450;28;20061;-70
2023/08/17 00:51:20;;;;;;;7.25;3.83;;;;;;;19.34;100.00;101888.75;5271481;28;20019;-70
2023/08/17 00:53:51;;;;;;;9.45;4.10;;;;;;;19.25;100.00;101892.66;5272086;28;20035;-71
2023/08/17 00:56:22;;;;;;;3.95;3.50;;;;;;;19.19;100.00;101883.41;5270861;28;20393;-70
2023/08/17 00:58:53;;;;;;;10.20;3.72;;;;;;;19.11;100.00;101884.38;5285322;28;20020;-70
2023/08/17 01:01:24;;;;;;;8.40;3.90;;;;;;;19.08;100.00;101889.41;5270895;28;20020;-71
2023/08/17 01:03:54;;;;;;;9.98;4.15;;;;;;;19.05;100.00;101892.50;5270189;28;20032;-70
2023/08/17 01:06:25;;;;;;;9.00;4.32;;;;;;;19.03;100.00;101889.97;5274216;28;20502;-71
2023/08/17 01:08:55;;;;;;;9.00;3.72;;;;;;;19.05;100.00;101896.06;5274089;28;20012;-71
2023/08/17 01:11:49;;;;;;;6.47;4.15;;;;;;;19.02;100.00;101890.16;5283436;28;20119;-70
2023/08/17 01:14:39;;;;;;;10.25;4.07;;;;;;;19.00;100.00;101886.81;5272881;28;20093;-71
2023/08/17 01:17:17;;;;;;;5.60;3.90;;;;;;;18.98;100.00;101891.63;5276349;28;20035;-71
2023/08/17 01:19:49;;;;;;;6.75;3.83;;;;;;;18.95;100.00;101887.41;5275050;28;20058;-70
2023/08/17 01:22:22;;;;;;;6.82;3.95;;;;;;;18.92;100.00;101885.06;5270568;28;20022;-70
2023/08/17 01:25:11;;;;;;;5.68;4.20;;;;;;;18.92;100.00;101886.94;5270473;28;20035;-70
2023/08/17 01:27:44;;;;;;;9.52;4.28;;;;;;;18.89;100.00;101886.31;5288700;28;20281;-70
2023/08/17 01:30:18;;;;;;;6.72;3.88;;;;;;;18.89;100.00;101886.31;5289224;28;20024;-70
2023/08/17 01:32:53;;;;;;;8.02;4.30;;;;;;;18.88;100.00;101890.06;5275530;28;20089;-70
2023/08/17 01:35:33;;;;;;;7.57;4.28;;;;;;;18.88;100.00;101879.19;5288398;28;20027;-71
2023/08/17 01:38:09;;;;;;;8.13;4.03;;;;;;;18.88;100.00;101887.34;5288164;28;20019;-72
2023/08/17 01:40:42;;;;;;;5.00;3.40;;;;;;;18.87;100.00;101885.63;5275034;28;20361;-71
2023/08/17 01:43:14;;;;;;;9.30;4.25;;;;;;;18.87;100.00;101876.66;5288597;28;20053;-71
2023/08/17 01:45:45;;;;;;;10.07;4.68;;;;;;;18.85;100.00;101890.44;5283804;28;20023;-70
2023/08/17 01:48:15;;;;;;;11.27;4.50;;;;;;;18.86;100.00;101881.25;5297019;28;20066;-70
2023/08/17 01:50:46;;;;;;;8.30;4.13;;;;;;;18.84;100.00;101880.63;5291204;28;20046;-71
2023/08/17 01:53:17;;;;;;;8.38;4.38;;;;;;;18.82;100.00;101882.66;5290780;28;20481;-70
2023/08/17 01:55:48;;;;;;;9.75;4.13;;;;;;;18.84;100.00;101882.50;5288920;28;20032;-70
2023/08/17 01:58:19;;;;;;;8.18;4.38;;;;;;;18.84;100.00;101877.91;5289135;28;20043;-71
2023/08/17 02:00:49;;;;;;;9.07;3.95;;;;;;;18.83;100.00;101876.22;5290123;28;20025;-70
2023/08/17 02:03:20;;;;;;;7.40;4.22;;;;;;;18.88;100.00;101881.06;5270151;28;20378;-70
2023/08/17 02:05:50;;;;;;;6.75;3.55;;;;;;;18.92;100.00;101876.91;5268662;28;20047;-70
2023/08/17 02:08:21;;;;;;;6.07;3.58;;;;;;;18.95;100.00;101875.69;5287504;28;20026;-70
2023/08/17 02:10:52;;;;;;;9.18;3.58;;;;;;;18.96;100.00;101877.34;5284690;28;20016;-70
2023/08/17 02:13:23;;;;;;;8.35;3.83;;;;;;;18.96;100.00;101874.63;5289230;28;20027;-70
2023/08/17 02:15:54;;;;;;;10.82;3.97;;;;;;;18.96;100.00;101877.34;5283024;27;20047;-71
2023/08/17 02:18:24;;;;;;;8.82;3.38;;;;;;;18.99;100.00;101874.25;5288394;28;20530;-70
2023/08/17 02:20:55;;;;;;;5.60;3.40;;;;;;;18.99;100.00;101876.97;5288336;28;20039;-70
2023/08/17 02:23:25;;;;;;;6.47;3.50;;;;;;;18.96;100.00;101877.34;5288693;28;20027;-71
2023/08/17 02:25:56;;;;;;;7.10;3.20;;;;;;;18.89;100.00;101870.00;5287898;28;20039;-71
2023/08/17 02:28:27;;;;;;;7.63;3.83;;;;;;;18.86;100.00;101872.25;5290022;28;20262;-70
2023/08/17 02:30:59;;;;;;;12.25;4.10;;;;;;;18.81;100.00;101875.56;5282474;28;20097;-71
2023/08/17 02:33:29;;;;;;;6.90;4.00;;;;;;;18.75;100.00;101868.19;5279944;28;20024;-71
2023/08/17 02:36:01;;;;;;;7.03;3.85;;;;;;;18.71;100.00;101866.06;5287535;28;20031;-71
2023/08/17 02:38:31;;;;;;;10.05;4.88;;;;;;;18.68;100.00;101861.00;5272886;28;20357;-71
2023/08/17 02:41:02;;;;;;;9.32;4.38;;;;;;;18.64;100.00;101865.97;5275462;28;20027;-70
2023/08/17 02:43:33;;;;;;;11.73;4.32;;;;;;;18.60;100.00;101859.25;5271923;28;20032;-71
2023/08/17 02:46:06;;;;;;;8.88;3.85;;;;;;;18.57;100.00;101862.34;5266377;28;20023;-71
2023/08/17 02:48:37;;;;;;;11.93;4.20;;;;;;;18.52;100.00;101864.78;5267702;28;20074;-70
2023/08/17 02:51:08;;;;;;;7.40;3.88;;;;;;;18.47;100.00;101859.09;5248894;28;20020;-70
2023/08/17 02:53:38;;;;;;;5.40;3.72;;;;;;;18.44;100.00;101851.34;5284183;28;20027;-71
2023/08/17 02:56:11;;;;;;;10.15;3.72;;;;;;;18.38;100.00;101852.97;5275306;28;20024;-70
2023/08/17 02:58:42;;;;;;;7.25;4.00;;;;;;;18.33;100.00;101861.69;5267523;28;20560;-70
2023/08/17 03:01:12;;;;;;;8.18;3.60;;;;;;;18.29;100.00;101856.84;5267352;28;20027;-71
2023/08/17 03:03:43;;;;;;;8.88;4.03;;;;;;;18.27;100.00;101857.03;5274159;28;20031;-70
2023/08/17 03:06:13;;;;;;;6.88;3.55;;;;;;;18.23;100.00;101863.88;5272160;28;20020;-70
2023/08/17 03:08:44;;;;;;;8.90;4.00;;;;;;;18.20;100.00;101860.69;5275667;28;20019;-70
2023/08/17 03:11:14;;;;;;;6.32;4.22;;;;;;;18.18;100.00;101863.63;5283114;28;20032;-71
2023/08/17 03:13:47;;;;;;;8.93;3.92;;;;;;;18.15;100.00;101863.16;5276760;28;20466;-70
2023/08/17 03:16:17;;;;;;;13.30;5.00;;;;;;;18.12;100.00;101861.66;5277322;28;20024;-70
2023/08/17 03:18:48;;;;;;;8.40;3.83;;;;;;;18.14;100.00;101858.75;5278597;28;20384;-70
2023/08/17 03:21:19;;;;;;;6.22;3.97;;;;;;;18.16;100.00;101859.41;5267597;28;20035;-70
2023/08/17 03:23:50;;;;;;;11.00;3.80;;;;;;;18.21;100.00;101862.38;5266675;28;20028;-70
2023/08/17 03:26:20;;;;;;;14.77;4.57;;;;;;;18.23;100.00;101863.88;5287420;28;20440;-70
2023/08/17 03:28:51;;;;;;;8.13;3.75;;;;;;;18.27;100.00;101865.19;5287877;28;20080;-70
2023/08/17 03:31:22;;;;;;;10.30;4.60;;;;;;;18.32;100.00;101859.16;5279215;28;20031;-70
2023/08/17 03:33:52;;;;;;;8.13;3.95;;;;;;;18.35;100.00;101866.94;5266754;28;20028;-70
2023/08/17 03:36:23;;;;;;;8.35;3.80;;;;;;;18.38;100.00;101870.09;5276133;28;20068;-70
2023/08/17 03:38:53;;;;;;;7.07;3.55;;;;;;;18.42;100.00;101869.72;5287423;28;20413;-70
2023/08/17 03:41:24;;;;;;;9.95;4.28;;;;;;;18.44;100.00;101859.50;5276761;28;20182;-70
2023/08/17 03:43:55;;;;;;;10.68;3.63;;;;;;;18.46;100.00;101868.28;5266120;28;20234;-70
2023/08/17 03:46:25;;;;;;;8.85;4.32;;;;;;;18.50;100.00;101862.28;5277454;28;20024;-71
2023/08/17 03:48:56;;;;;;;9.68;4.10;;;;;;;18.52;100.00;101865.63;5286939;28;20276;-71
2023/08/17 03:51:26;;;;;;;10.88;4.10;;;;;;;18.56;100.00;101864.22;5273451;28;20047;-70
2023/08/17 03:53:57;;;;;;;7.38;4.13;;;;;;;18.57;100.00;101857.75;5287503;28;20028;-71
2023/08/17 03:56:27;;;;;;;11.57;4.82;;;;;;;18.59;100.00;101857.56;5286573;28;20092;-70
2023/08/17 03:58:58;;;;;;;9.35;4.85;;;;;;;18.60;100.00;101865.50;5286702;28;20039;-70
2023/08/17 04:01:28;;;;;;;9.95;3.88;;;;;;;18.61;100.00;101858.19;5273385;28;20036;-70
2023/08/17 04:03:59;;;;;;;9.20;4.38;;;;;;;18.62;100.00;101865.31;5286895;28;20481;-71
2023/08/17 04:06:30;;;;;;;9.38;3.88;;;;;;;18.62;100.00;101863.47;5285980;28;20109;-70
2023/08/17 04:09:01;;;;;;;6.43;3.83;;;;;;;18.60;100.00;101860.06;5286734;28;20020;-71
2023/08/17 04:11:34;;;;;;;7.32;3.30;;;;;;;18.63;100.00;101864.28;5281440;28;20374;-71
2023/08/17 04:14:05;;;;;;;8.07;4.03;;;;;;;18.63;100.00;101864.28;5273040;28;20028;-71
2023/08/17 04:16:35;;;;;;;8.52;3.72;;;;;;;18.64;100.00;101868.69;5278764;28;20466;-70
2023/08/17 04:19:06;;;;;;;8.45;3.50;;;;;;;18.65;100.00;101875.81;5280119;28;20042;-70
2023/08/17 04:21:36;;;;;;;10.80;4.20;;;;;;;18.67;100.00;101879.16;5286401;28;20028;-71
2023/08/17 04:24:07;;;;;;;8.07;3.70;;;;;;;18.67;100.00;101873.72;5286703;28;20035;-71
2023/08/17 04:26:38;;;;;;;6.82;3.88;;;;;;;18.69;100.00;101881.72;5286628;28;20362;-70
2023/08/17 04:29:09;;;;;;;11.02;4.03;;;;;;;18.70;100.00;101884.25;5287085;28;20015;-71
2023/08/17 04:31:39;;;;;;;8.80;3.72;;;;;;;18.70;100.00;101880.69;5287016;28;20464;-70
2023/08/17 04:34:10;;;;;;;9.55;4.30;;;;;;;18.69;100.00;101879.84;5287132;28;20312;-70
2023/08/17 04:36:40;;;;;;;6.93;4.05;;;;;;;18.69;100.00;101874.41;5287167;28;20250;-70
2023/08/17 04:39:11;;;;;;;9.50;3.75;;;;;;;18.70;100.00;101886.13;5274135;28;20059;-69
2023/08/17 04:41:41;;;;;;;12.38;4.20;;;;;;;18.68;100.00;101878.19;5287740;28;20027;-70
2023/08/17 04:44:12;;;;;;;12.30;4.63;;;;;;;18.69;100.00;101881.72;5266696;28;20077;-70
2023/08/17 04:46:42;;;;;;;9.35;4.07;;;;;;;18.71;100.00;101883.19;5282708;28;20024;-69
2023/08/17 04:49:13;;;;;;;8.93;3.75;;;;;;;18.69;100.00;101876.28;5287925;28;20051;-69
2023/08/17 04:51:43;;;;;;;10.00;4.07;;;;;;;18.70;100.00;101880.69;5254017;28;20031;-70
2023/08/17 04:54:14;;;;;;;10.68;3.92;;;;;;;18.69;100.00;101882.56;5277348;28;20020;-70
2023/08/17 04:56:45;;;;;;;10.40;4.70;;;;;;;18.69;100.00;101881.72;5285560;28;20496;-71
2023/08/17 04:59:15;;;;;;;12.52;4.55;;;;;;;18.67;100.00;101881.88;5290720;28;20493;-70
2023/08/17 05:01:46;;;;;;;10.60;4.15;;;;;;;18.63;100.00;101880.59;5290988;28;20370;-70
2023/08/17 05:04:16;;;;;;;10.10;4.13;;;;;;;18.64;100.00;101882.28;5292251;28;20016;-70
2023/08/17 05:06:47;;;;;;;7.93;3.63;;;;;;;18.63;100.00;101881.44;5290458;28;20027;-70
2023/08/17 05:09:17;;;;;;;9.50;3.65;;;;;;;18.63;100.00;101883.31;5278121;28;20023;-70
2023/08/17 05:11:48;;;;;;;9.65;4.20;;;;;;;18.63;100.00;101880.59;5292050;28;20388;-70
2023/08/17 05:14:18;;;;;;;8.75;4.00;;;;;;;18.62;100.00;101884.34;5279752;28;20020;-70
2023/08/17 05:16:49;;;;;;;8.60;4.45;;;;;;;18.61;100.00;101888.09;5294578;28;20027;-70
2023/08/17 05:19:20;;;;;;;6.47;4.35;;;;;;;18.61;100.00;101883.50;5293502;28;20061;-70
2023/08/17 05:21:51;;;;;;;13.05;4.30;;;;;;;18.61;100.00;101883.50;5290446;28;20076;-70
2023/08/17 05:24:21;;;;;;;11.35;3.55;;;;;;;18.57;100.00;101884.91;5275658;28;20028;-70
2023/08/17 05:26:53;;;;;;;14.52;4.72;;;;;;;18.59;100.00;101890.19;5270976;28;20023;-70
2023/08/17 05:29:24;;;;;;;9.13;4.05;;;;;;;18.60;100.00;101891.84;5289913;28;20107;-70
2023/08/17 05:31:54;;;;;;;10.77;3.67;;;;;;;18.60;100.00;101891.84;5289984;28;20477;-70
2023/08/17 05:34:25;;;;;;;16.33;4.38;;;;;;;18.61;100.00;101893.53;5290187;28;20365;-70
2023/08/17 05:36:55;;;;;;;10.65;3.72;;;;;;;18.62;100.00;101889.78;5288602;28;20416;-70
2023/08/17 05:39:26;;;;;;;9.85;4.03;;;;;;;18.63;100.00;101886.03;5289530;28;20107;-71
2023/08/17 05:41:56;;;;;;;10.65;3.78;;;;;;;18.65;100.00;101892.09;5276001;28;20030;-70
2023/08/17 05:44:27;;;;;;;9.32;3.65;;;;;;;18.68;100.00;101878.19;5289456;28;20019;-70
2023/08/17 05:46:58;;;;;;;5.53;3.50;;;;;;;18.70;100.00;101894.28;5285691;28;20073;-70
2023/08/17 05:49:28;;;;;;;11.57;3.75;;;;;;;18.73;100.00;101896.63;5256020;28;20035;-70
2023/08/17 05:51:59;;;;;;;8.50;4.25;;;;;;;18.73;100.00;101896.63;5293200;27;20050;-70
2023/08/17 05:54:29;;;;;;;7.38;3.40;;;;;;;18.76;100.00;101896.22;5285576;28;20026;-70
2023/08/17 05:57:01;;;;;;;6.75;3.10;;;;;;;18.74;100.00;101887.44;5280152;28;20028;-70
2023/08/17 05:59:32;;;;;;;8.73;3.67;;;;;;;18.74;100.00;101888.25;5289361;28;20024;-70
2023/08/17 06:02:03;;;;;;;9.75;3.70;;;;;;;18.73;100.00;101894.75;5275696;28;20034;-69
2023/08/17 06:04:33;;;;;;;9.88;3.53;;;;;;;18.72;100.00;101889.47;5289141;28;20049;-70
2023/08/17 06:07:04;;;;;;;12.73;3.38;;;;;;;18.69;100.00;101888.00;5289057;28;20062;-70
2023/08/17 06:09:34;;;;;;;10.48;4.00;;;;;;;18.69;100.00;101896.16;5288703;28;20019;-70
2023/08/17 06:12:05;;;;;;;9.48;3.75;;;;;;;18.69;100.00;101895.31;5269905;28;20411;-70
2023/08/17 06:14:36;;;;;;;10.13;3.15;;;;;;;18.68;100.00;101897.19;5288396;28;20034;-70
2023/08/17 06:17:07;;;;;;;6.50;3.28;;;;;;;18.70;100.00;101903.28;5289131;28;20398;-71
2023/08/17 06:19:39;;;;;;;7.18;3.42;;;;;;;18.71;100.00;101904.09;5288963;28;20053;-70
2023/08/17 06:22:10;;;;;;;9.63;4.10;;;;;;;18.67;100.00;101902.78;5258580;28;20059;-69
2023/08/17 06:24:40;;;;;;;11.68;4.25;;;;;;;18.67;100.00;101909.06;5287206;28;20054;-70
2023/08/17 06:27:15;;;;;;;16.75;3.83;;;;;;;18.68;100.00;101916.22;5287992;28;20027;-69
2023/08/17 06:29:46;;;;;;;12.23;3.53;;;;;;;18.68;100.00;101913.50;5289051;28;20023;-70
2023/08/17 06:32:16;;;;;;;10.85;4.10;;;;;;;18.70;100.00;101911.44;5288785;28;20016;-69
2023/08/17 06:34:47;;;;;;;12.20;4.60;;;;;;;18.70;100.00;101911.44;5279248;28;20465;-69
2023/08/17 06:37:17;;;;;;;9.48;4.22;;;;;;;18.72;100.00;101912.06;5284247;28;20024;-70
2023/08/17 06:39:48;;;;;;;9.90;4.30;;;;;;;18.75;100.00;101914.41;5288562;28;20045;-70
2023/08/17 06:42:18;;;;;;;10.30;4.15;;;;;;;18.78;100.00;101919.47;5269225;28;20070;-70
2023/08/17 06:44:49;;;;;;;11.52;4.57;;;;;;;18.83;100.00;101918.88;5288171;28;20023;-70
2023/08/17 06:47:19;;;;;;;12.65;4.47;;;;;;;18.87;100.00;101918.25;5269417;28;20032;-70
2023/08/17 06:49:50;;;;;;;13.85;4.22;;;;;;;18.90;100.00;101919.78;5286468;28;20030;-70
2023/08/17 06:52:21;;;;;;;10.68;4.38;;;;;;;18.92;100.00;101914.97;5288268;28;20032;-69
2023/08/17 06:54:51;;;;;;;10.52;4.45;;;;;;;18.92;100.00;101927.72;5287778;28;20019;-70
2023/08/17 06:57:22;;;;;;;13.98;4.63;;;;;;;18.88;100.00;101922.69;5288069;28;20485;-70
2023/08/17 06:59:53;;;;;;;11.40;4.45;;;;;;;18.91;100.00;101926.03;5269444;28;20077;-70
2023/08/17 07:02:23;;;;;;;9.10;4.70;;;;;;;18.96;100.00;101924.41;5269520;28;20031;-70
2023/08/17 07:04:54;;;;;;;10.35;4.10;;;;;;;19.01;100.00;101929.28;5269529;28;20377;-69
2023/08/17 07:07:24;;;;;;;10.45;3.95;;;;;;;19.05;100.00;101923.25;5269552;28;20075;-70
2023/08/17 07:09:55;;;;;;;8.13;3.65;;;;;;;19.12;100.00;101917.84;5286814;28;20385;-70
2023/08/17 07:12:25;;;;;;;9.23;3.85;;;;;;;19.21;100.00;101927.56;5274636;28;20027;-70
2023/08/17 07:14:56;;;;;;;9.13;4.35;;;;;;;19.28;100.00;101928.47;5283534;27;20024;-70
2023/08/17 07:17:27;;;;;;;8.15;4.35;;;;;;;19.29;100.00;101918.44;5280690;27;20020;-70
2023/08/17 07:19:57;;;;;;;10.27;4.18;;;;;;;19.30;100.00;101922.81;5287469;28;20069;-69
2023/08/17 07:22:28;;;;;;;14.75;4.30;;;;;;;19.33;100.00;101926.00;5286301;28;20051;-70
2023/08/17 07:24:58;;;;;;;8.80;4.05;;;;;;;19.41;100.00;101922.28;5267310;28;20132;-70
2023/08/17 07:27:29;;;;;;;9.43;4.18;;;;;;;19.45;100.00;101926.28;5266360;28;20027;-70
2023/08/17 07:30:00;;;;;;;9.30;4.97;;;;;;;19.41;100.00;101917.66;5277855;28;20466;-70
2023/08/17 07:32:31;;;;;;;8.30;4.30;;;;;;;19.47;100.00;101920.63;5285612;28;20034;-70
2023/08/17 07:35:01;;;;;;;11.95;4.80;;;;;;;19.50;100.00;101907.47;5288548;28;20019;-70
2023/08/17 07:37:33;;;;;;;11.93;4.97;;;;;;;19.53;100.00;101908.94;5287716;28;20019;-70
2023/08/17 07:40:04;;;;;;;10.68;4.68;;;;;;;19.57;100.00;101902.91;5288040;28;20034;-70
2023/08/17 07:42:34;;;;;;;9.75;4.50;;;;;;;19.62;100.00;101916.78;5288073;28;20028;-71
2023/08/17 07:45:07;;;;;;;7.82;4.78;;;;;;;19.58;100.00;101910.06;5288072;28;20401;-70
2023/08/17 07:47:37;;;;;;;13.60;5.25;;;;;;;19.60;100.00;101912.59;5278787;28;20108;-70
2023/08/17 07:50:08;;;;;;;8.07;4.55;;;;;;;19.63;100.00;101910.31;5282607;28;20028;-70
2023/08/17 07:52:39;;;;;;;7.35;4.22;;;;;;;19.73;100.00;101909.09;5288309;28;20047;-71
2023/08/17 07:55:09;;;;;;;14.18;5.05;;;;;;;19.83;100.00;101905.00;5274726;28;20501;-70
2023/08/17 07:57:40;;;;;;;7.45;4.00;;;;;;;19.82;100.00;101903.28;5287844;28;20055;-70
2023/08/17 08:00:11;;;;;;;8.63;4.57;;;;;;;19.87;100.00;101911.69;5287854;28;20024;-70
2023/08/17 08:02:41;;;;;;;12.70;5.00;;;;;;;19.93;100.00;101904.63;5287740;28;20019;-71
2023/08/17 08:05:14;;;;;;;11.15;4.70;;;;;;;20.03;100.00;101913.25;5287258;28;20033;-70
2023/08/17 08:07:44;;;;;;;9.75;4.97;;;;;;;20.11;100.00;101914.94;5285594;28;20035;-70
2023/08/17 08:10:15;;;;;;;9.88;4.70;;;;;;;20.17;100.00;101911.41;5268021;28;20015;-70
2023/08/17 08:12:45;;;;;;;14.15;4.45;;;;;;;20.23;100.00;101920.63;5283803;28;20504;-71
2023/08/17 08:15:16;;;;;;;9.18;4.88;;;;;;;20.23;100.00;101910.59;5289239;28;20031;-70
2023/08/17 08:17:46;;;;;;;10.15;4.40;;;;;;;20.27;100.00;101900.13;5288917;28;20102;-70
2023/08/17 08:20:17;;;;;;;9.02;4.60;;;;;;;20.43;100.00;101902.47;5289795;28;20024;-70
2023/08/17 08:22:47;;;;;;;13.30;5.40;;;;;;;20.58;100.00;101892.28;5276124;28;20027;-71
2023/08/17 08:25:17;;;;;;;8.82;4.43;;;;;;;20.68;100.00;101897.28;5290638;28;20023;-71
2023/08/17 08:27:48;;;;;;;9.05;4.28;;;;;;;20.77;100.00;101901.50;5289019;28;20035;-70
2023/08/17 08:30:19;;;;;;;10.02;5.13;;;;;;;20.79;100.00;101907.63;5287093;28;20557;-71
2023/08/17 08:32:49;;;;;;;12.57;5.18;;;;;;;20.74;100.00;101904.66;5292504;28;20074;-70
2023/08/17 08:35:22;;;;;;;10.52;5.47;;;;;;;20.71;100.00;101899.63;5293157;28;20035;-70
2023/08/17 08:37:52;;;;;;;11.18;5.32;;;;;;;20.75;100.00;101900.06;5291562;28;20038;-71
2023/08/17 08:40:28;;;;;;;11.30;5.50;;;;;;;20.90;100.00;101904.25;5291691;28;20024;-72
2023/08/17 08:42:59;;;;;;;11.50;5.25;;;;;;;21.05;100.00;101898.59;5293229;28;20016;-71
2023/08/17 08:45:30;;;;;;;10.63;5.57;;;;;;;21.20;100.00;101904.66;5292981;28;20485;-70
2023/08/17 08:48:03;;;;;;;11.50;5.80;;;;;;;21.35;100.00;101906.38;5278637;28;20031;-70
2023/08/17 08:50:36;;;;;;;10.55;5.80;;;;;;;21.44;100.00;101905.94;5290175;28;20019;-71
2023/08/17 08:53:13;;;;;;;15.32;5.50;;;;;;;21.45;100.00;101907.63;5277080;28;20016;-71
2023/08/17 08:55:53;;;;;;;10.60;6.00;;;;;;;21.43;100.00;101904.25;5291048;28;20023;-71
2023/08/17 08:58:25;;;;;;;12.05;6.25;;;;;;;21.48;100.00;101909.06;5292075;28;20507;-71
2023/08/17 09:00:57;;;;;;;11.13;5.32;;;;;;;21.59;100.00;101904.88;5290573;28;20028;-71
2023/08/17 09:03:30;;;;;;;14.68;6.13;;;;;;;21.69;100.00;101902.53;5292708;28;20020;-70
2023/08/17 09:06:01;;;;;;;20.67;6.75;;;;;;;21.78;100.00;101897.66;5289971;28;20035;-71
2023/08/17 09:08:32;;;;;;;13.90;5.57;;;;;;;21.76;100.00;101906.06;5272474;28;20020;-71
2023/08/17 09:11:03;;;;;;;12.30;6.50;;;;;;;21.77;100.00;101896.81;5285517;28;20111;-71
2023/08/17 09:13:33;;;;;;;18.63;6.82;;;;;;;21.77;100.00;101898.72;5278268;28;20027;-71
2023/08/17 09:16:04;;;;;;;13.38;6.53;;;;;;;21.72;100.00;101892.00;5290249;28;20081;-71
2023/08/17 09:18:35;;;;;;;10.43;7.05;;;;;;;21.64;100.00;101896.88;5291656;28;20051;-71
2023/08/17 09:21:06;;;;;;;11.52;6.88;;;;;;;21.62;100.00;101888.03;5293398;28;20078;-70
2023/08/17 09:23:39;;;;;;;9.43;6.45;;;;;;;21.58;100.00;101890.34;5282000;28;20022;-71
2023/08/17 09:26:11;;;;;;;11.07;7.60;;;;;;;21.61;100.00;101889.09;5289193;28;20035;-70
2023/08/17 09:28:41;;;;;;;16.42;6.88;;;;;;;21.70;100.00;101885.91;5290616;28;20019;-70
2023/08/17 09:31:12;;;;;;;16.33;7.07;;;;;;;21.81;100.00;101870.75;5288859;28;20023;-71
2023/08/17 09:33:43;;;;;;;11.77;6.47;;;;;;;21.87;100.00;101878.06;5276112;28;20031;-70
2023/08/17 09:36:13;;;;;;;13.43;7.15;;;;;;;22.02;100.00;101872.34;5289492;28;20039;-71
2023/08/17 09:38:44;;;;;;;12.80;6.53;;;;;;;22.11;100.00;101879.28;5290274;28;20035;-70
2023/08/17 09:41:15;;;;;;;9.80;6.32;;;;;;;22.27;100.00;101874.34;5263500;28;20469;-71
2023/08/17 09:43:46;;;;;;;9.23;5.75;;;;;;;22.21;100.00;101871.44;5263974;28;20126;-70
2023/08/17 09:46:17;;;;;;;14.23;7.18;;;;;;;22.03;100.00;101882.22;5280603;28;20070;-71
2023/08/17 09:48:48;;;;;;;12.60;7.30;;;;;;;21.87;100.00;101879.97;5272391;28;20023;-70
2023/08/17 09:51:19;;;;;;;11.77;6.57;;;;;;;21.77;100.00;101885.88;5272810;28;20051;-70
2023/08/17 09:54:05;;;;;;;26.35;7.40;;;;;;;21.69;100.00;101873.31;5290554;28;20468;-71
2023/08/17 09:56:37;;;;;;;13.85;7.80;;;;;;;21.66;100.00;101868.28;5269690;28;20080;-71
2023/08/17 09:59:07;;;;;;;18.10;9.02;;;;;;;21.60;100.00;101871.88;5235881;28;20035;-70
2023/08/17 10:01:39;;;;;;;17.33;7.68;;;;;;;21.75;100.00;101854.41;5272872;28;20028;-70
2023/08/17 10:04:12;;;;;;;15.30;7.53;;;;;;;21.86;100.00;101861.91;5254377;28;20028;-71
2023/08/17 10:06:44;;;;;;;10.85;7.05;;;;;;;21.96;100.00;101863.13;5268022;28;20027;-70
2023/08/17 10:09:17;;;;;;;13.93;7.15;;;;;;;22.09;100.00;101862.25;5277609;28;20036;-71
2023/08/17 10:11:51;;;;;;;19.77;7.20;;;;;;;22.18;100.00;101871.03;5281397;28;20409;-71
2023/08/17 10:14:28;;;;;;;14.52;7.63;;;;;;;22.17;100.00;101877.56;5251120;28;20027;-70
2023/08/17 10:17:06;;;;;;;14.48;8.05;;;;;;;22.13;100.00;101877.16;5291083;28;20048;-71
2023/08/17 10:19:56;;;;;;;18.85;9.30;;;;;;;22.12;100.00;101874.63;5273589;28;20032;-70
2023/08/17 10:22:30;;;;;;;16.30;9.00;;;;;;;22.10;100.00;101863.06;5290699;28;20031;-70
2023/08/17 10:25:02;;;;;;;18.02;9.48;;;;;;;22.18;100.00;101865.56;5278210;28;20070;-70
2023/08/17 10:27:34;;;;;;;22.33;9.82;;;;;;;22.20;100.00;101866.19;5280849;28;20055;-71
2023/08/17 10:30:06;;;;;;;19.88;9.38;;;;;;;22.29;100.00;101855.81;5280824;28;20024;-70
2023/08/17 10:32:38;;;;;;;22.77;8.90;;;;;;;22.38;100.00;101860.81;5248419;28;20532;-71
2023/08/17 10:35:09;;;;;;;18.25;9.20;;;;;;;22.47;100.00;101854.03;5280361;28;20027;-71
2023/08/17 10:37:40;;;;;;;15.88;9.52;;;;;;;22.38;100.00;101860.81;5273763;28;20454;-70
2023/08/17 10:40:10;;;;;;;17.25;9.23;;;;;;;22.38;100.00;101863.53;5288183;28;20028;-71
2023/08/17 10:42:41;;;;;;;19.65;10.15;;;;;;;22.41;100.00;101868.59;5266488;28;20473;-71
2023/08/17 10:45:28;;;;;;;22.75;10.30;;;;;;;22.46;100.00;101868.75;5282657;28;20028;-71
2023/08/17 10:48:14;;;;;;;16.42;9.98;;;;;;;22.49;100.00;101865.59;5292904;28;20044;-71
2023/08/17 10:50:59;;;;;;;17.48;10.00;;;;;;;22.45;100.00;101864.34;5289936;28;20102;-71
2023/08/17 10:53:35;;;;;;;23.23;10.75;;;;;;;22.44;100.00;101865.44;5288813;28;20057;-72
2023/08/17 10:56:08;;;;;;;17.38;10.63;;;;;;;22.42;100.00;101870.25;5289575;28;20050;-71
2023/08/17 10:58:38;;;;;;;21.38;11.55;;;;;;;22.41;100.00;101870.50;5289777;28;20024;-71
2023/08/17 11:01:10;;;;;;;18.85;11.88;;;;;;;22.46;100.00;101870.66;5288142;28;20392;-71
2023/08/17 11:03:42;;;;;;;24.08;10.75;;;;;;;22.47;100.00;101875.91;5267103;28;20024;-71
2023/08/17 11:06:15;;;;;;;21.60;11.40;;;;;;;22.40;100.00;101877.84;5282012;28;20052;-71
2023/08/17 11:09:06;;;;;;;22.83;11.52;;;;;;;22.43;100.00;101877.41;5289504;28;20092;-72
2023/08/17 11:11:37;;;;;;;20.30;11.85;;;;;;;22.46;100.00;101876.97;5278387;28;20028;-70
2023/08/17 11:14:08;;;;;;;21.52;10.88;;;;;;;22.47;100.00;101881.38;5283049;28;20084;-70
2023/08/17 11:16:39;;;;;;;21.38;11.30;;;;;;;22.46;100.00;101882.44;5294783;27;20073;-71
2023/08/17 11:19:09;;;;;;;20.10;10.35;;;;;;;22.41;100.00;101884.16;5284726;28;20020;-71
2023/08/17 11:21:40;;;;;;;18.85;10.40;;;;;;;22.34;100.00;101881.47;5275180;28;20034;-71
2023/08/17 11:24:10;;;;;;;19.73;11.13;;;;;;;22.37;100.00;101881.00;5287696;28;20031;-71
2023/08/17 11:26:41;;;;;;;22.27;12.35;;;;;;;22.41;100.00;101885.00;5286469;28;20426;-71
2023/08/17 11:29:12;;;;;;;21.92;11.57;;;;;;;22.41;100.00;101878.69;5287059;28;20420;-71
2023/08/17 11:31:42;;;;;;;18.65;11.55;;;;;;;22.44;100.00;101886.44;5286311;28;20511;-71